Townline, New York
Current Conditions -  °F | °C
As of 11:24 PM on Tuesday 21 Oct 2014 (Local Time) from KBUF Reporting Station
Drizzle Drizzle  
Wind Chill: 40°   Ceiling: 500
Heat Index: 45°   Visibility: 4mi
Dew Point: 42°   Wind: 9mph
Humidity: 90%   Direction: 30°NNE
Pressure: 30.1"   Gusts: NA
Location:  42.8931°N, 78.5076°W
Report Text: KBUF 220324Z 03008KT 4SM -DZ BR OVC005 07/06 A3010 RMK AO2 P0000 T00720056
Loading
Personal Weather Stations






























Interactive Weather Map New forecast layout! Learn more

10-Day Weather Forecast

Advertisements
Track Severe Weather on mobile